Portada
METAR-TAF:

METAR-TAF

Aeropuertos :

Aeropuerto de Gran Canaria

Gran Canaria, España

latitud: 27-56N, longitud: 015-23W, altitud: 23 m

Observación

El informe se hizo hace 15 minutos, a las 18:30 UTC
Viento 13 kt del norte
Temperatura 18°C
Humedad 59%
Presión 1021 hPa
Visibilidad 10 km o más
Escasas nubes a una altura de 3500 ft

METAR: GCLP 161830Z 36013KT 9999 FEW035 18/10 Q1021 NOSIG

Hora: 18:45 (18:45 UTC)

Pronóstico

El informe se hizo hace 4 horas y 45 minutos, a las 14:00 UTC
Pronóstico válido del 16 a las 15 UTC al 17 a las 15 UTC
Viento 17 kt del norte
Visibilidad 10 km o más
Escasas nubes a una altura de 4000 ft

TAF: GCLP 161400Z 1615/1715 36017KT 9999 FEW040 TX20/1714Z TN14/1706Z

Observaciones y pronósticos meteorológicos de más de 4000 aeropuertos (mensajes METAR y TAF).

Los puntos amarillos y rojos representan las estaciones disponibles.

Ponga el ratón en el punto deseado para ver el nombre de la estación.

Haga clic para ver las observaciones y los pronósticos meteorológicos.

Para cambiar el mapa : haga clic en los botones verdes con una cruz de color negro para hacer un zoom, en el botón verde con un guión para alejar o en las flechas verdes para mapas adyacentes.


METAR-TAF: